Time;durP1;ratioP1;P1;durP2;ratioP2;P2;SDS_P1;SDS_P2;PMS_P1;PMS_P2;Temp;Humidity;BMP_temperature;BMP_pressure;BME280_temperature;BME280_humidity;BME280_pressure;Samples;Min_cycle;Max_cycle;Signal;HPM_P1;HPM_P2
2023/12/18 00:00:15;;;;;;;0.30;0.30;;;3.70;99.90;;;;;;5068559;28;20782;-78
2023/12/18 00:02:41;;;;;;;0.30;0.20;;;3.70;99.90;;;;;;5069372;28;20430;-79
2023/12/18 00:05:08;;;;;;;0.30;0.20;;;3.70;99.90;;;;;;5068810;28;20380;-79
2023/12/18 00:07:33;;;;;;;0.30;0.20;;;3.80;99.90;;;;;;5069114;28;20645;-76
2023/12/18 00:09:59;;;;;;;0.30;0.30;;;3.80;99.90;;;;;;5070910;28;20331;-76
2023/12/18 00:12:25;;;;;;;0.30;0.20;;;3.80;99.90;;;;;;5070659;28;20223;-76
2023/12/18 00:14:51;;;;;;;0.30;0.20;;;3.80;99.90;;;;;;5070340;28;20207;-76
2023/12/18 00:17:16;;;;;;;0.30;0.30;;;3.70;99.90;;;;;;5068575;28;20185;-79
2023/12/18 00:19:43;;;;;;;0.30;0.20;;;3.70;99.90;;;;;;5069904;28;20681;-76
2023/12/18 00:22:08;;;;;;;0.30;0.25;;;3.70;99.90;;;;;;5068996;28;20226;-79
2023/12/18 00:24:35;;;;;;;0.30;0.20;;;3.70;99.90;;;;;;5070155;28;20258;-79
2023/12/18 00:27:00;;;;;;;0.30;0.20;;;3.70;99.90;;;;;;5069775;28;20180;-79
2023/12/18 00:29:26;;;;;;;0.30;0.30;;;3.70;99.90;;;;;;5068932;28;20197;-79
2023/12/18 00:31:52;;;;;;;0.30;0.30;;;3.70;99.90;;;;;;5068492;28;20213;-77
2023/12/18 00:34:18;;;;;;;0.30;0.20;;;3.70;99.90;;;;;;5069895;28;20235;-76
2023/12/18 00:36:44;;;;;;;0.30;0.30;;;3.70;99.90;;;;;;5069681;28;20170;-80
2023/12/18 00:39:11;;;;;;;0.30;0.30;;;3.80;99.90;;;;;;5069995;28;20189;-79
2023/12/18 00:41:36;;;;;;;0.30;0.30;;;3.80;99.90;;;;;;5068383;28;21105;-78
2023/12/18 00:44:03;;;;;;;0.30;0.30;;;3.80;99.90;;;;;;5069832;28;20197;-77
2023/12/18 00:46:29;;;;;;;0.30;0.20;;;3.80;99.90;;;;;;5069723;28;20201;-78
2023/12/18 00:48:54;;;;;;;0.30;0.20;;;3.80;99.90;;;;;;5069467;28;20628;-78
2023/12/18 00:51:20;;;;;;;0.30;0.20;;;3.80;99.90;;;;;;5068159;28;20232;-76
2023/12/18 00:53:46;;;;;;;0.30;0.20;;;3.70;99.90;;;;;;5069978;28;20280;-76
2023/12/18 00:56:11;;;;;;;0.30;0.27;;;3.70;99.90;;;;;;5068421;28;20192;-78
2023/12/18 00:58:37;;;;;;;0.30;0.30;;;3.70;99.90;;;;;;5068878;28;20193;-77
2023/12/18 01:01:03;;;;;;;0.30;0.30;;;3.80;99.90;;;;;;5068859;28;20177;-77
2023/12/18 01:03:30;;;;;;;0.40;0.40;;;3.80;99.90;;;;;;5070152;28;20197;-76
2023/12/18 01:05:56;;;;;;;0.30;0.20;;;3.80;99.90;;;;;;5068231;28;20586;-79
2023/12/18 01:08:22;;;;;;;0.30;0.30;;;3.80;99.90;;;;;;5069803;28;20271;-76
2023/12/18 01:10:48;;;;;;;0.30;0.20;;;3.80;99.90;;;;;;5069522;28;20173;-76
2023/12/18 01:13:13;;;;;;;0.30;0.30;;;3.80;99.90;;;;;;5069734;28;20478;-79
2023/12/18 01:15:39;;;;;;;0.30;0.27;;;3.80;99.90;;;;;;5069263;28;20549;-79
2023/12/18 01:18:05;;;;;;;0.30;0.20;;;3.80;99.90;;;;;;5069421;28;20483;-79
2023/12/18 01:20:30;;;;;;;0.30;0.20;;;3.90;99.90;;;;;;5069308;28;20220;-76
2023/12/18 01:22:56;;;;;;;0.30;0.30;;;3.90;99.90;;;;;;5068116;28;20416;-79
2023/12/18 01:25:22;;;;;;;0.30;0.20;;;3.90;99.90;;;;;;5068218;28;20185;-76
2023/12/18 01:27:47;;;;;;;0.30;0.30;;;3.90;99.90;;;;;;5067948;28;20181;-78
2023/12/18 01:30:13;;;;;;;0.30;0.30;;;3.90;99.90;;;;;;5067912;28;20381;-79
2023/12/18 01:32:39;;;;;;;0.30;0.30;;;3.90;99.90;;;;;;5069782;28;20661;-77
2023/12/18 01:35:05;;;;;;;0.30;0.30;;;3.90;99.90;;;;;;5069085;28;20912;-77
2023/12/18 01:37:30;;;;;;;0.30;0.20;;;3.90;99.90;;;;;;5069612;28;20169;-79
2023/12/18 01:39:57;;;;;;;0.30;0.30;;;3.80;99.90;;;;;;5068313;28;20917;-79
2023/12/18 01:42:23;;;;;;;0.30;0.20;;;3.80;99.90;;;;;;5067743;28;20452;-76
2023/12/18 01:44:48;;;;;;;0.30;0.20;;;3.70;99.90;;;;;;5068003;28;20384;-75
2023/12/18 01:47:16;;;;;;;0.30;0.20;;;3.70;99.90;;;;;;5069079;28;20506;-78
2023/12/18 01:49:42;;;;;;;0.30;0.20;;;3.70;99.90;;;;;;5067631;28;20587;-76
2023/12/18 01:52:08;;;;;;;0.30;0.20;;;3.60;99.90;;;;;;5068771;28;20201;-78
2023/12/18 01:54:34;;;;;;;0.30;0.30;;;3.60;99.90;;;;;;5069233;28;20228;-78
2023/12/18 01:57:02;;;;;;;0.30;0.30;;;3.60;99.90;;;;;;5069549;28;20243;-76
2023/12/18 01:59:29;;;;;;;0.30;0.30;;;3.60;99.90;;;;;;5071957;28;20409;-79
2023/12/18 02:01:55;;;;;;;0.30;0.30;;;3.60;99.90;;;;;;5071899;28;20467;-76
2023/12/18 02:04:22;;;;;;;0.30;0.20;;;3.50;99.90;;;;;;5071679;28;20216;-76
2023/12/18 02:06:49;;;;;;;0.30;0.30;;;3.50;99.90;;;;;;5070911;28;20222;-76
2023/12/18 02:09:15;;;;;;;0.30;0.20;;;3.50;99.90;;;;;;5072903;28;20448;-79
2023/12/18 02:11:45;;;;;;;0.30;0.20;;;3.50;99.90;;;;;;5071053;28;20220;-78
2023/12/18 02:14:11;;;;;;;0.30;0.20;;;3.40;99.90;;;;;;5073109;28;20338;-76
2023/12/18 02:16:37;;;;;;;0.30;0.30;;;3.40;99.90;;;;;;5072381;28;20197;-77
2023/12/18 02:19:02;;;;;;;0.30;0.30;;;3.40;99.90;;;;;;5072687;28;20656;-76
2023/12/18 02:21:28;;;;;;;0.30;0.27;;;3.40;99.90;;;;;;5072111;28;20177;-76
2023/12/18 02:23:54;;;;;;;0.30;0.30;;;3.40;99.90;;;;;;5071040;28;20607;-79
2023/12/18 02:26:20;;;;;;;0.30;0.30;;;3.40;99.90;;;;;;5072535;28;20225;-76
2023/12/18 02:28:46;;;;;;;0.30;0.20;;;3.40;99.90;;;;;;5071157;28;20694;-79
2023/12/18 02:31:16;;;;;;;0.30;0.30;;;3.40;99.90;;;;;;5071962;28;20173;-76
2023/12/18 02:33:48;;;;;;;0.30;0.30;;;3.40;99.90;;;;;;5071232;28;20769;-76
2023/12/18 02:36:13;;;;;;;0.30;0.20;;;3.40;99.90;;;;;;5072205;28;20161;-79
2023/12/18 02:38:39;;;;;;;0.30;0.30;;;3.40;99.90;;;;;;5072170;28;20704;-76
2023/12/18 02:41:04;;;;;;;0.30;0.30;;;3.40;99.90;;;;;;5071918;28;20169;-79
2023/12/18 02:43:30;;;;;;;0.30;0.30;;;3.40;99.90;;;;;;5071000;28;20304;-76
2023/12/18 02:45:56;;;;;;;0.30;0.20;;;3.40;99.90;;;;;;5070260;28;20658;-79
2023/12/18 02:48:21;;;;;;;0.30;0.30;;;3.40;99.90;;;;;;5072207;28;20930;-79
2023/12/18 02:50:47;;;;;;;0.30;0.30;;;3.30;99.90;;;;;;5069993;28;20480;-76
2023/12/18 02:53:14;;;;;;;0.30;0.20;;;3.40;99.90;;;;;;5070763;28;20216;-76
2023/12/18 02:55:40;;;;;;;0.30;0.30;;;3.40;99.90;;;;;;5071588;28;20226;-78
2023/12/18 02:58:06;;;;;;;0.30;0.30;;;3.30;99.90;;;;;;5070707;28;20295;-76
2023/12/18 03:00:32;;;;;;;0.30;0.20;;;3.30;99.90;;;;;;5069733;28;20192;-78
2023/12/18 03:02:58;;;;;;;0.30;0.20;;;3.30;99.90;;;;;;5070770;28;20197;-79
2023/12/18 03:05:24;;;;;;;0.30;0.20;;;3.30;99.90;;;;;;5071822;28;20899;-76
2023/12/18 03:07:50;;;;;;;0.30;0.20;;;3.30;99.90;;;;;;5069880;28;20193;-79
2023/12/18 03:10:15;;;;;;;0.30;0.30;;;3.30;99.90;;;;;;5071955;28;20422;-78
2023/12/18 03:12:41;;;;;;;0.30;0.20;;;3.30;99.90;;;;;;5071784;28;20220;-76
2023/12/18 03:15:08;;;;;;;0.30;0.20;;;3.30;99.90;;;;;;5071441;28;20185;-78
2023/12/18 03:17:34;;;;;;;0.30;0.30;;;3.30;99.90;;;;;;5069724;28;20312;-76
2023/12/18 03:19:59;;;;;;;0.30;0.30;;;3.30;99.90;;;;;;5069923;28;20268;-79
2023/12/18 03:22:25;;;;;;;0.30;0.30;;;3.30;99.90;;;;;;5071577;28;20399;-78
2023/12/18 03:24:51;;;;;;;0.30;0.30;;;3.30;99.90;;;;;;5071201;28;20200;-76
2023/12/18 03:27:16;;;;;;;0.30;0.20;;;3.20;99.90;;;;;;5071259;28;20169;-79
2023/12/18 03:29:42;;;;;;;0.30;0.30;;;3.20;99.90;;;;;;5071233;28;20611;-76
2023/12/18 03:32:08;;;;;;;0.30;0.20;;;3.20;99.90;;;;;;5071312;28;20240;-79
2023/12/18 03:34:33;;;;;;;0.30;0.20;;;3.10;99.90;;;;;;5070391;28;20197;-78
2023/12/18 03:36:59;;;;;;;0.30;0.20;;;3.10;99.90;;;;;;5070774;28;20306;-77
2023/12/18 03:39:25;;;;;;;0.30;0.20;;;3.10;99.90;;;;;;5068982;28;20291;-75
2023/12/18 03:41:51;;;;;;;0.30;0.30;;;3.10;99.90;;;;;;5069259;28;20717;-79
2023/12/18 03:44:16;;;;;;;0.30;0.20;;;3.10;99.90;;;;;;5071287;28;20242;-76
2023/12/18 03:46:43;;;;;;;0.30;0.20;;;3.10;99.90;;;;;;5070558;28;20260;-76
2023/12/18 03:49:08;;;;;;;0.30;0.30;;;3.20;99.90;;;;;;5070798;28;20246;-76
2023/12/18 03:51:34;;;;;;;0.30;0.30;;;3.20;99.90;;;;;;5069110;28;20217;-76
2023/12/18 03:54:00;;;;;;;0.30;0.20;;;3.20;99.90;;;;;;5070795;28;20189;-76
2023/12/18 03:56:25;;;;;;;0.30;0.20;;;3.20;99.90;;;;;;5070121;28;20287;-76
2023/12/18 03:58:51;;;;;;;0.30;0.30;;;3.20;99.90;;;;;;5069392;28;20681;-79
2023/12/18 04:01:17;;;;;;;0.30;0.20;;;3.20;99.90;;;;;;5069866;28;20191;-78
2023/12/18 04:03:42;;;;;;;0.30;0.20;;;3.20;99.90;;;;;;5070793;28;20190;-79
2023/12/18 04:06:09;;;;;;;0.30;0.20;;;3.20;99.90;;;;;;5068591;28;20227;-76
2023/12/18 04:08:34;;;;;;;0.30;0.30;;;3.10;99.90;;;;;;5069034;28;20306;-78
2023/12/18 04:11:00;;;;;;;6.90;6.63;;;3.10;99.90;;;;;;5070121;28;20173;-77
2023/12/18 04:13:26;;;;;;;0.30;0.20;;;3.10;99.90;;;;;;5070673;28;20198;-79
2023/12/18 04:15:52;;;;;;;0.30;0.30;;;3.10;99.90;;;;;;5069859;28;20566;-79
2023/12/18 04:18:18;;;;;;;0.30;0.30;;;3.10;99.90;;;;;;5067628;28;20232;-79
2023/12/18 04:20:44;;;;;;;0.30;0.30;;;3.20;99.90;;;;;;5068136;28;20260;-78
2023/12/18 04:23:10;;;;;;;0.30;0.20;;;3.10;99.90;;;;;;5066920;28;20308;-76
2023/12/18 04:25:36;;;;;;;0.30;0.20;;;3.20;99.90;;;;;;5067070;28;20173;-78
2023/12/18 04:28:01;;;;;;;0.30;0.30;;;3.20;99.90;;;;;;5066980;28;20201;-76
2023/12/18 04:30:28;;;;;;;0.30;0.30;;;3.10;99.90;;;;;;5068325;28;20173;-76
2023/12/18 04:32:53;;;;;;;0.30;0.20;;;3.10;99.90;;;;;;5068729;28;20216;-79
2023/12/18 04:35:19;;;;;;;0.30;0.30;;;3.10;99.90;;;;;;5069837;28;20169;-79
2023/12/18 04:37:45;;;;;;;0.30;0.20;;;3.10;99.90;;;;;;5069950;28;20238;-76
2023/12/18 04:40:11;;;;;;;0.30;0.30;;;3.10;99.90;;;;;;5070235;28;20445;-76
2023/12/18 04:42:36;;;;;;;0.30;0.20;;;3.10;99.90;;;;;;5068483;28;20253;-76
2023/12/18 04:45:02;;;;;;;0.30;0.30;;;3.10;99.90;;;;;;5069450;28;20173;-79
2023/12/18 04:47:28;;;;;;;0.30;0.30;;;3.00;99.90;;;;;;5070131;28;20196;-76
2023/12/18 04:49:53;;;;;;;0.30;0.20;;;3.00;99.90;;;;;;5069455;28;20197;-79
2023/12/18 04:52:19;;;;;;;0.30;0.20;;;3.00;99.90;;;;;;5069626;28;20747;-79
2023/12/18 04:54:45;;;;;;;0.30;0.20;;;2.90;99.90;;;;;;5068494;28;20343;-78
2023/12/18 04:57:11;;;;;;;0.30;0.30;;;2.90;99.90;;;;;;5069818;28;20180;-76
2023/12/18 04:59:36;;;;;;;0.30;0.30;;;2.90;99.90;;;;;;5069741;28;20408;-79
2023/12/18 05:02:02;;;;;;;0.30;0.30;;;2.80;99.90;;;;;;5066058;28;20403;-76
2023/12/18 05:04:28;;;;;;;0.30;0.23;;;2.80;99.90;;;;;;5060618;28;20445;-76
2023/12/18 05:06:54;;;;;;;0.30;0.30;;;2.80;99.90;;;;;;5067724;28;20393;-76
2023/12/18 05:09:19;;;;;;;0.30;0.20;;;2.80;99.90;;;;;;5069660;28;20283;-76
2023/12/18 05:11:45;;;;;;;0.30;0.30;;;2.80;99.90;;;;;;5069298;28;20200;-75
2023/12/18 05:14:11;;;;;;;0.30;0.30;;;2.80;99.90;;;;;;5068221;28;20209;-79
2023/12/18 05:16:36;;;;;;;0.30;0.30;;;2.80;99.90;;;;;;5069140;28;20911;-76
2023/12/18 05:19:02;;;;;;;0.30;0.30;;;2.80;99.90;;;;;;5083577;28;20567;-78
2023/12/18 05:21:28;;;;;;;0.30;0.20;;;2.80;99.90;;;;;;5082216;28;20191;-79
2023/12/18 05:23:54;;;;;;;0.30;0.20;;;2.80;99.90;;;;;;5083291;28;20183;-75
2023/12/18 05:26:21;;;;;;;0.30;0.30;;;2.80;99.90;;;;;;5091950;28;20664;-78
2023/12/18 05:28:47;;;;;;;0.30;0.30;;;2.80;99.90;;;;;;5091318;28;20196;-80
2023/12/18 05:31:14;;;;;;;0.30;0.30;;;2.80;99.90;;;;;;5082756;28;20679;-76
2023/12/18 05:33:40;;;;;;;0.30;0.30;;;2.80;99.90;;;;;;5097167;28;20249;-76
2023/12/18 05:36:07;;;;;;;0.30;0.20;;;2.80;99.90;;;;;;5079853;28;20779;-79
2023/12/18 05:38:33;;;;;;;0.30;0.30;;;2.90;99.90;;;;;;5073826;28;20220;-76
2023/12/18 05:40:58;;;;;;;0.30;0.30;;;2.80;99.90;;;;;;5093361;28;20681;-75
2023/12/18 05:43:24;;;;;;;0.30;0.30;;;2.80;99.90;;;;;;5091770;28;20424;-79
2023/12/18 05:45:50;;;;;;;0.30;0.30;;;2.90;99.90;;;;;;5081948;28;20180;-75
2023/12/18 05:48:16;;;;;;;0.30;0.30;;;2.90;99.90;;;;;;5068076;28;20261;-78
2023/12/18 05:50:41;;;;;;;0.30;0.30;;;2.90;99.90;;;;;;5067939;28;20829;-76
2023/12/18 05:53:07;;;;;;;0.30;0.30;;;2.90;99.90;;;;;;5069964;28;20253;-79
2023/12/18 05:55:32;;;;;;;0.30;0.30;;;2.90;99.90;;;;;;5066665;28;20196;-79
2023/12/18 05:57:58;;;;;;;0.30;0.30;;;2.90;99.90;;;;;;5069050;28;20249;-79
2023/12/18 06:00:24;;;;;;;0.30;0.30;;;2.90;99.90;;;;;;5072465;28;20263;-78
2023/12/18 06:02:49;;;;;;;0.30;0.30;;;3.00;99.90;;;;;;5092889;28;20188;-78
2023/12/18 06:05:15;;;;;;;0.30;0.30;;;2.90;99.90;;;;;;5094554;28;20703;-78
2023/12/18 06:07:42;;;;;;;0.30;0.30;;;2.90;99.90;;;;;;5095594;28;20442;-76
2023/12/18 06:10:09;;;;;;;0.30;0.20;;;3.00;99.90;;;;;;5084923;28;20596;-76
2023/12/18 06:12:35;;;;;;;0.30;0.20;;;3.00;99.90;;;;;;5092169;28;20215;-76
2023/12/18 06:15:00;;;;;;;50.20;46.90;;;2.90;99.90;;;;;;5090857;28;20271;-79
2023/12/18 06:17:26;;;;;;;0.30;0.20;;;2.80;99.90;;;;;;5088315;28;20318;-79
2023/12/18 06:19:52;;;;;;;0.30;0.20;;;2.80;99.90;;;;;;5092163;28;20460;-79
2023/12/18 06:22:17;;;;;;;0.30;0.30;;;2.80;99.90;;;;;;5092529;28;20267;-79
2023/12/18 06:24:43;;;;;;;0.30;0.20;;;2.70;99.90;;;;;;5087271;28;20188;-78
2023/12/18 06:27:09;;;;;;;0.30;0.20;;;2.70;99.90;;;;;;5090298;28;20204;-76
2023/12/18 06:29:34;;;;;;;0.30;0.30;;;2.70;99.90;;;;;;5088231;28;20203;-77
2023/12/18 06:32:00;;;;;;;0.30;0.20;;;2.60;99.90;;;;;;5091592;28;20212;-76
2023/12/18 06:34:26;;;;;;;0.30;0.20;;;2.60;99.90;;;;;;5083204;28;20196;-75
2023/12/18 06:36:51;;;;;;;0.30;0.30;;;2.60;99.90;;;;;;5087376;28;20637;-76
2023/12/18 06:39:17;;;;;;;0.30;0.30;;;2.60;99.90;;;;;;5080545;28;20295;-79
2023/12/18 06:41:42;;;;;;;0.30;0.20;;;2.60;99.90;;;;;;5066107;28;20233;-76
2023/12/18 06:44:08;;;;;;;0.30;0.20;;;2.60;99.90;;;;;;5079702;28;21382;-79
2023/12/18 06:46:34;;;;;;;0.30;0.30;;;2.60;99.90;;;;;;5083479;28;20199;-76
2023/12/18 06:49:03;;;;;;;0.30;0.30;;;2.60;99.90;;;;;;5081402;28;20609;-78
2023/12/18 06:51:28;;;;;;;0.30;0.20;;;2.60;99.90;;;;;;5079129;28;20509;-79
2023/12/18 06:53:54;;;;;;;0.30;0.30;;;2.60;99.90;;;;;;5083219;28;20200;-76
2023/12/18 06:56:21;;;;;;;0.30;0.20;;;2.70;99.90;;;;;;5082192;28;20179;-79
2023/12/18 06:58:48;;;;;;;0.30;0.30;;;2.70;99.90;;;;;;5080089;28;20709;-79
2023/12/18 07:01:15;;;;;;;0.30;0.20;;;2.70;99.90;;;;;;5085294;28;20707;-76
2023/12/18 07:03:41;;;;;;;0.30;0.30;;;2.80;99.90;;;;;;5079920;28;20565;-79
2023/12/18 07:06:07;;;;;;;0.30;0.27;;;2.80;99.90;;;;;;5087605;28;20176;-76
2023/12/18 07:08:33;;;;;;;0.30;0.30;;;2.90;99.90;;;;;;5078451;28;20445;-79
2023/12/18 07:10:58;;;;;;;0.30;0.30;;;2.90;99.90;;;;;;5095646;27;20591;-77
2023/12/18 07:13:24;;;;;;;0.30;0.20;;;2.90;99.90;;;;;;5080246;28;20692;-79
2023/12/18 07:15:50;;;;;;;0.30;0.20;;;2.90;99.90;;;;;;5086727;28;20177;-76
2023/12/18 07:18:17;;;;;;;0.30;0.20;;;2.90;99.90;;;;;;5085566;28;20301;-79
2023/12/18 07:20:44;;;;;;;0.30;0.20;;;3.00;99.90;;;;;;5076436;28;20181;-76
2023/12/18 07:23:10;;;;;;;0.30;0.20;;;3.00;99.90;;;;;;5084529;28;20193;-77
2023/12/18 07:25:37;;;;;;;0.30;0.30;;;3.10;99.90;;;;;;5077315;28;20192;-75
2023/12/18 07:28:07;;;;;;;0.30;0.30;;;3.20;99.90;;;;;;5079928;28;20692;-76
2023/12/18 07:30:33;;;;;;;4.10;3.90;;;3.50;99.90;;;;;;5086332;28;20177;-76
2023/12/18 07:32:59;;;;;;;0.30;0.30;;;3.80;99.90;;;;;;5086758;28;20216;-76
2023/12/18 07:35:25;;;;;;;0.87;0.87;;;4.20;99.90;;;;;;5086002;28;20432;-79
2023/12/18 07:37:53;;;;;;;2.63;2.53;;;4.60;99.90;;;;;;5077025;28;20884;-76
2023/12/18 07:40:18;;;;;;;0.30;0.30;;;5.10;99.90;;;;;;5084567;28;20184;-76
2023/12/18 07:42:44;;;;;;;0.87;0.87;;;5.50;99.90;;;;;;5087678;28;20221;-79
2023/12/18 07:45:10;;;;;;;10.70;10.30;;;5.80;99.90;;;;;;5094207;28;20183;-77
2023/12/18 07:47:37;;;;;;;0.40;0.30;;;6.10;99.90;;;;;;5090544;28;20196;-79
2023/12/18 07:50:05;;;;;;;0.40;0.40;;;6.40;99.90;;;;;;5091688;28;20200;-78
2023/12/18 07:52:31;;;;;;;5.13;4.82;;;6.90;99.90;;;;;;5087983;27;20835;-76
2023/12/18 07:54:56;;;;;;;2.93;2.83;;;7.40;99.90;;;;;;5080689;28;20274;-79
2023/12/18 07:57:22;;;;;;;1.37;1.37;;;7.90;99.90;;;;;;5081852;28;20185;-78
2023/12/18 07:59:47;;;;;;;0.60;0.60;;;8.60;99.90;;;;;;5085248;28;20227;-76
2023/12/18 08:02:13;;;;;;;0.40;0.30;;;9.30;99.90;;;;;;5078200;28;20181;-79
2023/12/18 08:04:39;;;;;;;0.83;0.83;;;10.00;99.90;;;;;;5081746;28;20743;-77
2023/12/18 08:07:07;;;;;;;1.37;1.37;;;10.70;99.90;;;;;;5071178;28;20615;-76
2023/12/18 08:09:33;;;;;;;2.70;2.47;;;11.40;99.90;;;;;;5086975;28;20224;-77
2023/12/18 08:11:59;;;;;;;0.40;0.30;;;11.90;99.90;;;;;;5084531;28;20696;-76
2023/12/18 08:14:25;;;;;;;2.10;2.00;;;12.30;99.90;;;;;;5083106;28;20228;-76
2023/12/18 08:16:53;;;;;;;7.27;6.50;;;12.70;99.90;;;;;;5079076;28;20335;-77
2023/12/18 08:19:19;;;;;;;0.50;0.50;;;13.00;99.90;;;;;;5080416;28;20461;-77
2023/12/18 08:21:44;;;;;;;2.07;1.97;;;13.20;99.90;;;;;;5080547;28;21421;-79
2023/12/18 08:24:10;;;;;;;0.40;0.30;;;13.30;99.90;;;;;;5077016;28;20200;-79
2023/12/18 08:26:36;;;;;;;2.97;2.87;;;13.50;99.90;;;;;;5084886;28;20184;-77
2023/12/18 08:29:02;;;;;;;0.70;0.70;;;13.70;99.90;;;;;;5082251;28;20693;-80
2023/12/18 08:31:28;;;;;;;0.40;0.30;;;13.80;99.90;;;;;;5077459;28;20418;-77
2023/12/18 08:33:54;;;;;;;3.40;2.90;;;13.80;99.90;;;;;;5079243;28;20192;-80
2023/12/18 08:36:19;;;;;;;2.80;2.67;;;13.90;99.90;;;;;;5085527;28;20537;-80
2023/12/18 08:38:45;;;;;;;3.10;3.00;;;14.10;99.90;;;;;;5083834;28;20561;-79
2023/12/18 08:41:11;;;;;;;0.40;0.40;;;14.40;99.90;;;;;;5086854;28;20188;-78
2023/12/18 08:43:37;;;;;;;0.60;0.60;;;14.70;99.90;;;;;;5091937;28;20248;-80
2023/12/18 08:46:03;;;;;;;17.70;16.47;;;15.30;99.90;;;;;;5092548;28;20436;-80
2023/12/18 08:48:29;;;;;;;0.53;0.53;;;15.90;98.80;;;;;;5098246;28;20244;-78
2023/12/18 08:50:54;;;;;;;0.40;0.30;;;16.50;98.60;;;;;;5090086;28;20763;-80
2023/12/18 08:53:20;;;;;;;6.63;6.17;;;17.10;97.10;;;;;;5096748;28;20614;-78
2023/12/18 08:55:45;;;;;;;2.37;2.20;;;17.50;96.40;;;;;;5074181;28;20207;-80
2023/12/18 08:58:11;;;;;;;1.23;1.23;;;17.90;95.70;;;;;;5083546;28;20725;-80
2023/12/18 09:00:37;;;;;;;4.80;4.53;;;18.20;94.50;;;;;;5085985;28;20188;-80
2023/12/18 09:03:06;;;;;;;10.67;3.70;;;18.60;93.90;;;;;;5079612;28;20198;-80
2023/12/18 09:05:33;;;;;;;1.67;1.23;;;18.90;93.10;;;;;;5080017;28;20430;-78
2023/12/18 09:08:00;;;;;;;0.83;0.83;;;19.40;92.30;;;;;;5101264;27;20625;-80
2023/12/18 09:10:25;;;;;;;1.70;1.07;;;19.60;90.80;;;;;;5087925;28;20788;-78
2023/12/18 09:12:52;;;;;;;4.20;3.00;;;19.50;90.40;;;;;;5078603;28;20475;-78
2023/12/18 09:15:18;;;;;;;0.40;0.40;;;19.50;90.00;;;;;;5093101;28;20187;-80
2023/12/18 09:17:44;;;;;;;0.83;0.83;;;19.60;89.80;;;;;;5086476;28;20507;-80
2023/12/18 09:20:10;;;;;;;0.80;0.80;;;19.50;90.20;;;;;;5089664;28;20469;-78
2023/12/18 09:22:36;;;;;;;0.43;0.43;;;19.50;89.00;;;;;;5081039;28;20432;-79
2023/12/18 09:25:03;;;;;;;0.40;0.40;;;19.50;88.50;;;;;;5072777;28;20425;-79
2023/12/18 09:27:28;;;;;;;2.53;2.43;;;19.50;88.60;;;;;;5090263;28;20969;-79
2023/12/18 09:29:54;;;;;;;1.63;1.53;;;19.50;88.70;;;;;;5086473;28;20512;-80
2023/12/18 09:32:20;;;;;;;2.10;2.00;;;19.60;88.60;;;;;;5085370;28;20734;-79
2023/12/18 09:34:46;;;;;;;0.40;0.20;;;19.70;86.70;;;;;;5084998;28;20216;-78
2023/12/18 09:37:12;;;;;;;0.73;0.73;;;19.90;86.70;;;;;;5057194;28;20439;-79
2023/12/18 09:39:41;;;;;;;3.00;2.80;;;19.90;85.40;;;;;;5074946;28;20209;-78
2023/12/18 09:42:09;;;;;;;11.67;1.43;;;19.90;86.20;;;;;;5081750;28;20192;-80
2023/12/18 09:44:36;;;;;;;0.47;0.43;;;19.70;85.30;;;;;;5084324;28;20459;-80
2023/12/18 09:47:02;;;;;;;3.13;2.73;;;19.80;85.50;;;;;;5076903;28;20424;-78
2023/12/18 09:49:27;;;;;;;1.33;1.23;;;19.90;85.20;;;;;;5077686;28;20460;-78
2023/12/18 09:51:56;;;;;;;0.90;0.90;;;19.90;85.40;;;;;;5056628;28;20464;-80
2023/12/18 09:54:23;;;;;;;0.40;0.30;;;19.90;85.00;;;;;;5071443;28;20224;-78
2023/12/18 09:56:51;;;;;;;8.53;2.57;;;19.70;84.80;;;;;;5075073;28;21025;-80
2023/12/18 09:59:17;;;;;;;1.63;1.57;;;19.40;86.10;;;;;;5079497;28;20448;-78
2023/12/18 10:01:46;;;;;;;3.63;1.30;;;19.00;85.50;;;;;;5080667;28;20440;-76
2023/12/18 10:04:12;;;;;;;2.80;2.67;;;18.60;87.00;;;;;;5081174;28;20460;-77
2023/12/18 10:06:39;;;;;;;0.40;0.40;;;18.30;87.10;;;;;;5078068;28;20428;-77
2023/12/18 10:09:12;;;;;;;1.77;1.10;;;17.70;87.40;;;;;;5084009;28;20462;-79
2023/12/18 10:11:38;;;;;;;0.40;0.27;;;17.20;88.40;;;;;;5081698;28;20693;-79
2023/12/18 10:14:04;;;;;;;0.40;0.20;;;16.70;89.00;;;;;;5082422;28;20951;-77
2023/12/18 10:16:32;;;;;;;0.40;0.30;;;16.10;90.00;;;;;;5063783;28;20522;-77
2023/12/18 10:18:58;;;;;;;0.40;0.20;;;15.70;90.80;;;;;;5070657;28;20229;-77
2023/12/18 10:21:24;;;;;;;0.70;0.70;;;15.60;90.90;;;;;;5081541;28;20422;-79
2023/12/18 10:23:53;;;;;;;0.73;0.73;;;15.30;90.80;;;;;;5089185;28;20447;-79
2023/12/18 10:26:19;;;;;;;0.40;0.40;;;15.10;91.00;;;;;;5085616;28;21289;-80
2023/12/18 10:28:45;;;;;;;0.73;0.50;;;14.90;91.30;;;;;;5084123;28;20529;-80
2023/12/18 10:31:11;;;;;;;0.40;0.20;;;14.80;91.40;;;;;;5088692;28;20215;-80
2023/12/18 10:33:37;;;;;;;0.37;0.20;;;14.70;91.30;;;;;;5088483;28;20521;-81
2023/12/18 10:36:06;;;;;;;0.90;0.90;;;14.70;91.00;;;;;;5093211;28;20224;-78
2023/12/18 10:38:34;;;;;;;0.30;0.20;;;14.70;91.20;;;;;;5082620;28;21004;-78
2023/12/18 10:41:02;;;;;;;0.40;0.30;;;14.50;91.10;;;;;;5087284;28;20688;-80
2023/12/18 10:43:33;;;;;;;0.40;0.30;;;14.40;90.90;;;;;;5086385;28;20497;-80
2023/12/18 10:46:02;;;;;;;0.80;0.63;;;14.30;91.40;;;;;;5090702;28;20433;-78
2023/12/18 10:48:28;;;;;;;0.30;0.20;;;14.30;91.50;;;;;;5069408;28;20892;-77
2023/12/18 10:50:56;;;;;;;0.93;0.80;;;14.20;91.30;;;;;;5066847;28;20785;-77
2023/12/18 10:53:23;;;;;;;0.50;0.40;;;14.10;91.20;;;;;;5091402;28;20446;-77
2023/12/18 10:55:50;;;;;;;0.77;0.73;;;14.00;91.50;;;;;;5085654;28;20400;-80
2023/12/18 10:58:19;;;;;;;0.30;0.30;;;14.00;91.50;;;;;;5090223;28;20875;-80
2023/12/18 11:00:46;;;;;;;0.30;0.30;;;13.90;91.50;;;;;;5089987;28;20479;-77
2023/12/18 11:03:13;;;;;;;0.47;0.47;;;13.70;91.40;;;;;;5098832;28;20840;-77
2023/12/18 11:05:40;;;;;;;1.60;1.60;;;13.60;92.20;;;;;;5088246;28;20446;-78
2023/12/18 11:08:06;;;;;;;0.30;0.30;;;13.50;91.80;;;;;;5088196;28;20705;-79
2023/12/18 11:10:32;;;;;;;0.30;0.20;;;13.40;92.50;;;;;;5096774;28;20432;-80
2023/12/18 11:13:28;;;;;;;0.40;0.30;;;13.20;92.80;;;;;;5095636;28;20218;-79
2023/12/18 11:16:27;;;;;;;2.60;1.27;;;13.10;93.10;;;;;;5090121;28;20184;-77
2023/12/18 11:19:02;;;;;;;0.30;0.20;;;13.00;93.70;;;;;;5086221;28;20481;-79
2023/12/18 11:21:27;;;;;;;2.93;2.73;;;13.00;93.80;;;;;;5085432;28;20988;-80
2023/12/18 11:23:53;;;;;;;0.40;0.30;;;13.00;94.00;;;;;;5085408;28;20444;-79
2023/12/18 11:26:20;;;;;;;0.40;0.30;;;13.00;93.50;;;;;;5099535;28;20544;-79
2023/12/18 11:28:50;;;;;;;1.13;1.07;;;13.00;93.60;;;;;;5087581;28;20558;-77
2023/12/18 11:31:20;;;;;;;0.30;0.20;;;13.10;93.80;;;;;;5082945;28;20413;-79
2023/12/18 11:34:07;;;;;;;0.30;0.20;;;13.10;93.40;;;;;;5086266;28;20463;-78
2023/12/18 11:36:33;;;;;;;0.60;0.60;;;13.20;93.90;;;;;;5086772;28;20468;-80
2023/12/18 11:38:58;;;;;;;0.50;0.50;;;13.20;93.90;;;;;;5095736;28;20474;-79
2023/12/18 11:41:41;;;;;;;15.03;3.90;;;13.20;93.90;;;;;;5095105;28;20982;-77
2023/12/18 11:44:08;;;;;;;0.40;0.30;;;13.30;93.60;;;;;;5093757;28;20208;-77
2023/12/18 11:46:33;;;;;;;0.87;0.83;;;13.30;93.50;;;;;;5110072;27;20405;-79
2023/12/18 11:49:03;;;;;;;0.57;0.57;;;13.20;93.70;;;;;;5087835;28;20508;-78
2023/12/18 11:51:30;;;;;;;0.30;0.20;;;13.30;94.00;;;;;;5087746;28;20216;-79
2023/12/18 11:54:00;;;;;;;0.40;0.20;;;13.40;93.60;;;;;;5095794;28;20432;-80
2023/12/18 11:56:44;;;;;;;1.50;1.40;;;13.50;93.60;;;;;;5078675;28;20408;-80
2023/12/18 11:59:10;;;;;;;0.73;0.73;;;13.70;93.70;;;;;;5062772;28;20451;-80
2023/12/18 12:01:39;;;;;;;2.50;2.40;;;13.70;94.00;;;;;;5084124;28;20776;-79
2023/12/18 12:04:06;;;;;;;0.30;0.20;;;13.80;93.60;;;;;;5084009;28;20768;-80
2023/12/18 12:06:33;;;;;;;0.30;0.20;;;14.00;92.90;;;;;;5085354;28;21021;-79
2023/12/18 12:08:59;;;;;;;0.40;0.33;;;14.00;92.60;;;;;;5085574;28;21076;-80
2023/12/18 12:11:25;;;;;;;1.10;1.03;;;14.10;92.50;;;;;;5072309;28;20412;-77
2023/12/18 12:13:54;;;;;;;0.30;0.20;;;14.10;92.50;;;;;;5058827;28;20460;-77
2023/12/18 12:16:20;;;;;;;6.03;5.73;;;14.10;92.30;;;;;;5060320;28;20425;-80
2023/12/18 12:18:47;;;;;;;0.30;0.20;;;14.10;92.20;;;;;;5074896;28;20995;-78
2023/12/18 12:21:14;;;;;;;0.30;0.30;;;14.10;92.30;;;;;;5083388;28;20192;-77
2023/12/18 12:23:40;;;;;;;0.30;0.30;;;14.10;92.20;;;;;;5093620;28;20459;-79
2023/12/18 12:26:11;;;;;;;0.30;0.20;;;14.10;92.20;;;;;;5085179;28;20471;-80
2023/12/18 12:28:37;;;;;;;0.50;0.50;;;14.20;92.20;;;;;;5086165;28;20463;-78
2023/12/18 12:31:03;;;;;;;0.30;0.30;;;14.20;92.40;;;;;;5074705;28;20425;-80
2023/12/18 12:33:43;;;;;;;2.70;1.70;;;14.20;92.30;;;;;;5084816;28;20512;-79
2023/12/18 12:36:09;;;;;;;0.50;0.50;;;14.20;92.30;;;;;;5081986;28;20736;-78
2023/12/18 12:38:36;;;;;;;0.67;0.67;;;14.30;92.30;;;;;;5093716;28;20427;-79
2023/12/18 12:41:03;;;;;;;0.30;0.20;;;14.30;91.60;;;;;;5088873;28;20485;-77
2023/12/18 12:43:29;;;;;;;0.70;0.70;;;14.30;91.60;;;;;;5081725;28;20444;-79
2023/12/18 12:45:54;;;;;;;0.30;0.20;;;14.30;91.40;;;;;;5086017;28;20424;-80
2023/12/18 12:48:23;;;;;;;0.30;0.20;;;14.30;91.80;;;;;;5073117;28;20210;-80